Time;durP1;ratioP1;P1;durP2;ratioP2;P2;SDS_P1;SDS_P2;PMS_P1;PMS_P2;Temp;Humidity;BMP_temperature;BMP_pressure;BME280_temperature;BME280_humidity;BME280_pressure;Samples;Min_cycle;Max_cycle;Signal;HPM_P1;HPM_P2
2024/01/04 00:00:56;;;;;;;8.80;4.40;;;;;;;6.02;99.45;97605.45;79481;1297;3011510;-67
2024/01/04 00:03:26;;;;;;;9.30;5.10;;;;;;;6.28;97.66;97603.45;78366;1297;3057274;-67
2024/01/04 00:05:52;;;;;;;7.70;4.40;;;;;;;6.34;97.41;97601.08;79555;1296;3011491;-67
2024/01/04 00:08:19;;;;;;;16.30;4.80;;;;;;;6.24;97.38;97604.55;79590;1297;3012094;-70
2024/01/04 00:10:47;;;;;;;11.80;5.50;;;;;;;6.03;98.25;97609.23;78281;1298;3053020;-67
2024/01/04 00:13:13;;;;;;;8.70;5.00;;;;;;;5.85;99.02;97606.11;79503;1296;3012915;-68
2024/01/04 00:15:40;;;;;;;9.70;4.00;;;;;;;5.78;99.90;97607.12;79555;1299;3011249;-68
2024/01/04 00:18:08;;;;;;;8.30;3.90;;;;;;;6.32;99.22;97604.52;78224;1297;3026611;-71
2024/01/04 00:20:35;;;;;;;8.80;4.00;;;;;;;6.57;96.13;97608.42;79447;1300;3012919;-65
2024/01/04 00:23:01;;;;;;;6.10;3.90;;;;;;;6.60;95.60;97603.73;79615;1297;3012060;-69
2024/01/04 00:27:22;;;;;;;9.40;4.40;;;;;;;6.23;96.49;97602.05;80734;1303;3013341;-70
2024/01/04 00:29:49;;;;;;;9.30;4.70;;;;;;;6.10;97.45;97597.77;79670;1301;3012686;-66
2024/01/04 00:32:16;;;;;;;7.70;3.40;;;;;;;5.91;98.32;97605.52;79527;1300;3011703;-64
2024/01/04 00:34:44;;;;;;;8.90;3.80;;;;;;;6.44;97.23;97600.33;78519;1303;3052777;-66
2024/01/04 00:37:11;;;;;;;8.90;4.00;;;;;;;6.85;94.69;97597.83;79661;1299;3013399;-68
2024/01/04 00:39:37;;;;;;;6.60;3.90;;;;;;;6.83;93.71;97595.59;79351;1300;3013738;-69
2024/01/04 00:42:05;;;;;;;9.00;4.20;;;;;;;6.49;94.47;97600.50;78476;1298;3025113;-65
2024/01/04 00:44:32;;;;;;;14.20;4.30;;;;;;;6.21;96.05;97594.74;79573;1298;3012814;-63
2024/01/04 00:46:59;;;;;;;9.80;4.50;;;;;;;6.10;96.78;97594.14;79476;1302;3011638;-66
2024/01/04 00:49:29;;;;;;;8.70;3.80;;;;;;;6.69;96.30;97592.23;78109;1299;3026556;-68
2024/01/04 00:51:56;;;;;;;9.90;3.80;;;;;;;6.90;93.61;97588.27;79266;1297;3011595;-67
2024/01/04 00:54:25;;;;;;;15.80;4.00;;;;;;;6.88;93.17;97594.14;78858;1297;3011770;-68
2024/01/04 00:56:52;;;;;;;8.40;3.50;;;;;;;6.85;92.72;97592.32;79330;1298;3018217;-66
2024/01/04 00:59:18;;;;;;;9.60;4.50;;;;;;;6.57;93.26;97596.84;79474;1298;3011605;-64
2024/01/04 01:01:46;;;;;;;14.30;4.20;;;;;;;6.40;94.00;97596.81;78366;1303;3026951;-67
2024/01/04 01:04:13;;;;;;;8.70;3.30;;;;;;;6.33;95.30;97591.10;79421;1303;3013021;-68
2024/01/04 01:06:39;;;;;;;8.40;3.80;;;;;;;6.78;94.29;97592.26;79181;1303;3011880;-67
2024/01/04 01:09:07;;;;;;;9.50;4.20;;;;;;;6.94;92.62;97592.31;78005;1298;3026270;-68
2024/01/04 01:11:34;;;;;;;8.70;4.20;;;;;;;6.75;93.03;97597.39;79482;1298;3013537;-67
2024/01/04 01:14:01;;;;;;;9.00;4.20;;;;;;;6.56;93.77;97594.77;79396;1298;3013299;-66
2024/01/04 01:16:29;;;;;;;10.00;4.80;;;;;;;6.56;93.30;97589.71;78095;1303;3029458;-68
2024/01/04 01:18:55;;;;;;;9.80;3.50;;;;;;;6.23;94.47;97592.83;79466;1298;3013704;-66
2024/01/04 01:21:22;;;;;;;10.20;4.00;;;;;;;6.71;94.71;97587.94;79301;1303;3011670;-68
2024/01/04 01:23:50;;;;;;;11.30;4.30;;;;;;;7.16;91.61;97596.86;78277;1298;3026016;-70
2024/01/04 01:26:17;;;;;;;8.70;3.90;;;;;;;6.96;91.72;97591.28;79328;1297;3012915;-69
2024/01/04 01:28:43;;;;;;;11.00;4.20;;;;;;;6.93;91.72;97588.23;79452;1302;3011727;-69
2024/01/04 01:31:11;;;;;;;7.70;4.10;;;;;;;6.71;91.68;97589.86;78175;1301;3026520;-70
2024/01/04 01:33:42;;;;;;;11.60;4.80;;;;;;;6.28;93.81;97585.86;79405;1303;3013300;-64
2024/01/04 01:36:10;;;;;;;9.30;4.60;;;;;;;6.32;94.22;97591.14;78213;1303;3069608;-67
2024/01/04 01:38:37;;;;;;;13.50;4.00;;;;;;;6.71;93.65;97587.06;79374;1301;3013622;-68
2024/01/04 01:41:03;;;;;;;10.00;4.10;;;;;;;7.09;91.56;97582.49;79487;1297;3013598;-65
2024/01/04 01:43:31;;;;;;;9.80;4.20;;;;;;;6.95;90.72;97580.95;78182;1302;3026571;-67
2024/01/04 01:45:58;;;;;;;11.30;4.50;;;;;;;6.60;92.29;97575.86;79113;1301;3013695;-70
2024/01/04 01:48:25;;;;;;;14.50;4.90;;;;;;;6.51;92.65;97580.70;79445;1303;3011693;-66
2024/01/04 01:50:53;;;;;;;8.00;3.20;;;;;;;6.39;93.00;97583.67;78238;1298;3025933;-64
2024/01/04 01:53:19;;;;;;;7.00;4.00;;;;;;;6.62;93.31;97582.37;79572;1298;3012924;-69
2024/01/04 01:55:46;;;;;;;11.50;4.30;;;;;;;7.05;91.87;97578.20;79183;1303;3011944;-70
2024/01/04 01:58:14;;;;;;;9.60;4.20;;;;;;;6.93;91.14;97582.44;78038;1303;3026974;-66
2024/01/04 02:00:41;;;;;;;10.10;4.70;;;;;;;6.85;91.63;97582.15;79337;1303;3014868;-67
2024/01/04 02:03:08;;;;;;;11.90;4.90;;;;;;;6.69;91.63;97580.61;79226;1302;3011543;-71
2024/01/04 02:05:36;;;;;;;11.60;4.50;;;;;;;6.55;92.14;97578.51;78148;1297;3068963;-70
2024/01/04 02:08:03;;;;;;;12.70;4.70;;;;;;;6.36;92.79;97584.61;79416;1298;3013344;-66
2024/01/04 02:10:31;;;;;;;12.60;5.00;;;;;;;6.62;93.68;97580.61;79321;1297;3011456;-68
2024/01/04 02:12:59;;;;;;;8.70;4.30;;;;;;;7.01;91.56;97580.14;78093;1301;3053438;-69
2024/01/04 02:15:25;;;;;;;11.40;4.50;;;;;;;6.77;91.59;97577.56;79336;1303;3014686;-64
2024/01/04 02:17:52;;;;;;;12.70;5.60;;;;;;;6.54;92.50;97568.85;79457;1301;3011525;-71
2024/01/04 02:20:20;;;;;;;10.90;5.20;;;;;;;6.45;92.98;97569.83;78143;1302;3028378;-64
2024/01/04 02:22:48;;;;;;;11.20;5.20;;;;;;;6.34;93.08;97580.23;79248;1303;3013250;-69
2024/01/04 02:25:15;;;;;;;9.10;4.70;;;;;;;6.24;93.72;97567.76;79324;1298;3011989;-68
2024/01/04 02:27:43;;;;;;;10.70;4.60;;;;;;;6.59;93.18;97565.36;78188;1302;3052947;-73
2024/01/04 02:30:13;;;;;;;11.90;5.00;;;;;;;6.90;91.70;97563.85;79521;1303;3014158;-70
2024/01/04 02:32:42;;;;;;;12.50;5.40;;;;;;;6.67;91.26;97571.52;79072;1301;3011751;-70
2024/01/04 02:35:08;;;;;;;10.20;4.90;;;;;;;6.30;92.93;97573.73;79557;1298;3013212;-67
2024/01/04 02:37:35;;;;;;;12.90;5.80;;;;;;;6.16;93.42;97583.26;79422;1302;3011644;-69
2024/01/04 02:40:03;;;;;;;14.90;6.20;;;;;;;5.98;94.04;97585.06;78290;1303;3026526;-73
2024/01/04 02:42:32;;;;;;;10.40;5.00;;;;;;;5.63;95.96;97576.73;79069;1300;3013655;-69
2024/01/04 02:44:58;;;;;;;16.20;6.00;;;;;;;6.18;95.52;97569.37;79336;1302;3011482;-70
2024/01/04 02:47:26;;;;;;;12.80;5.70;;;;;;;6.47;93.10;97567.62;78690;1298;3054700;-71
2024/01/04 02:49:53;;;;;;;9.40;4.30;;;;;;;6.58;92.18;97563.88;79215;1303;3013208;-68
2024/01/04 02:52:20;;;;;;;11.90;5.50;;;;;;;6.33;92.29;97573.19;79388;1303;3011489;-68
2024/01/04 02:54:48;;;;;;;12.30;5.70;;;;;;;6.12;92.94;97582.54;78124;1303;3056640;-70
2024/01/04 02:57:15;;;;;;;13.80;5.90;;;;;;;5.88;93.79;97583.33;79378;1303;3019095;-68
2024/01/04 02:59:41;;;;;;;10.60;5.40;;;;;;;5.62;95.45;97574.91;79397;1303;3011649;-69
2024/01/04 03:02:10;;;;;;;12.10;4.70;;;;;;;6.12;95.55;97574.44;78208;1303;3026556;-70
2024/01/04 03:04:40;;;;;;;12.10;5.70;;;;;;;6.48;92.83;97575.91;79341;1303;3013671;-67
2024/01/04 03:07:08;;;;;;;17.40;5.50;;;;;;;6.56;91.55;97580.15;78149;1299;3050212;-71
2024/01/04 03:09:35;;;;;;;11.70;5.60;;;;;;;6.15;92.59;97573.91;79331;1299;3018448;-68
2024/01/04 03:12:01;;;;;;;24.00;6.10;;;;;;;6.13;92.77;97573.56;79267;1303;3011657;-64
2024/01/04 03:14:30;;;;;;;17.40;6.20;;;;;;;5.89;93.23;97570.56;78129;1303;3028494;-69
2024/01/04 03:16:56;;;;;;;18.50;7.70;;;;;;;5.85;93.61;97571.91;79385;1314;3012763;-68
2024/01/04 03:19:23;;;;;;;25.20;9.10;;;;;;;6.27;93.58;97572.88;79161;1302;3011868;-72
2024/01/04 03:21:51;;;;;;;15.80;6.80;;;;;;;6.63;91.59;97574.27;78201;1302;3026816;-70
2024/01/04 03:24:17;;;;;;;12.70;4.80;;;;;;;6.70;89.81;97579.61;79329;1299;3013003;-71
2024/01/04 03:26:44;;;;;;;14.90;6.20;;;;;;;6.41;90.45;97577.63;79366;1299;3011672;-68
2024/01/04 03:29:12;;;;;;;18.30;6.70;;;;;;;6.10;91.52;97584.23;78120;1302;3026462;-64
2024/01/04 03:31:38;;;;;;;17.40;6.30;;;;;;;5.88;92.73;97587.16;79206;1303;3013467;-66
2024/01/04 03:34:05;;;;;;;9.70;4.70;;;;;;;5.55;94.83;97589.14;79281;1301;3011644;-65
2024/01/04 03:36:33;;;;;;;13.30;4.80;;;;;;;6.40;93.75;97597.00;78347;1303;3051244;-69
2024/01/04 03:39:00;;;;;;;12.20;5.10;;;;;;;6.33;91.81;97595.77;79393;1299;3012807;-70
2024/01/04 03:41:27;;;;;;;17.20;6.50;;;;;;;6.46;90.99;97597.59;79271;1303;3013294;-69
2024/01/04 03:43:55;;;;;;;10.50;5.60;;;;;;;6.26;91.50;97604.80;78117;1302;3028603;-68
2024/01/04 03:46:22;;;;;;;12.40;6.40;;;;;;;5.90;92.32;97606.28;79398;1303;3013108;-69
2024/01/04 03:48:48;;;;;;;13.00;6.90;;;;;;;5.59;94.01;97605.15;79292;1302;3011746;-64
2024/01/04 03:51:16;;;;;;;15.80;6.20;;;;;;;5.53;94.69;97610.75;78168;1301;3026268;-68
2024/01/04 03:53:43;;;;;;;12.00;6.00;;;;;;;5.94;94.20;97617.50;79415;1301;3013120;-71
2024/01/04 03:56:09;;;;;;;12.90;5.90;;;;;;;6.19;92.62;97614.33;79335;1299;3011724;-64
2024/01/04 03:58:38;;;;;;;15.40;7.60;;;;;;;6.56;90.23;97612.85;78197;1303;3027442;-65
2024/01/04 04:01:05;;;;;;;35.90;18.30;;;;;;;5.92;91.60;97617.22;79503;1304;3013327;-66
2024/01/04 04:03:32;;;;;;;19.50;10.10;;;;;;;5.62;94.07;97620.05;79515;1303;3011472;-65
2024/01/04 04:06:05;;;;;;;19.30;10.60;;;;;;;5.55;93.93;97626.08;78302;1299;3051930;-66
2024/01/04 04:08:32;;;;;;;;;;;;;;;5.42;95.39;97637.08;79459;1300;3011530;-71
2024/01/04 04:11:00;;;;;;;13.90;6.60;;;;;;;5.84;94.05;97632.63;78187;1303;3049383;-73
2024/01/04 04:13:26;;;;;;;24.70;11.00;;;;;;;6.29;92.55;97631.91;79398;1305;3013551;-69
2024/01/04 04:15:53;;;;;;;22.90;10.90;;;;;;;6.22;91.78;97632.04;79310;1303;3011532;-71
2024/01/04 04:18:21;;;;;;;24.60;10.40;;;;;;;6.00;91.82;97633.91;78043;1304;3026503;-72
2024/01/04 04:20:48;;;;;;;20.60;10.40;;;;;;;5.69;92.45;97634.52;79352;1301;3018984;-70
2024/01/04 04:23:14;;;;;;;17.20;9.00;;;;;;;5.53;93.58;97631.65;79448;1299;3012742;-67
2024/01/04 04:25:42;;;;;;;13.10;6.40;;;;;;;5.53;93.30;97640.86;78218;1298;3026650;-70
2024/01/04 04:28:09;;;;;;;17.40;7.50;;;;;;;6.03;91.76;97642.56;79353;1299;3013269;-65
2024/01/04 04:30:35;;;;;;;18.30;8.30;;;;;;;6.31;90.09;97647.01;79374;1304;3011345;-69
2024/01/04 04:33:04;;;;;;;14.10;7.90;;;;;;;6.31;89.30;97648.60;78204;1304;3026707;-69
2024/01/04 04:35:30;;;;;;;14.40;7.70;;;;;;;6.00;89.58;97655.81;79338;1302;3013012;-68
2024/01/04 04:37:57;;;;;;;11.80;6.90;;;;;;;5.65;90.53;97656.80;79338;1304;3011650;-72
2024/01/04 04:40:25;;;;;;;15.90;7.40;;;;;;;5.45;92.18;97658.61;78178;1302;3048843;-68
2024/01/04 04:42:52;;;;;;;11.80;5.80;;;;;;;5.35;92.20;97656.81;79438;1302;3011655;-71
2024/01/04 04:45:18;;;;;;;12.50;6.20;;;;;;;5.68;92.23;97655.08;79349;1303;3013747;-70
2024/01/04 04:47:46;;;;;;;14.20;6.50;;;;;;;6.16;89.66;97661.13;78122;1302;3026216;-67
2024/01/04 04:50:13;;;;;;;14.70;7.60;;;;;;;5.79;89.73;97662.65;79393;1302;3013735;-68
2024/01/04 04:52:40;;;;;;;21.40;9.10;;;;;;;5.64;90.71;97671.48;79391;1300;3011264;-66
2024/01/04 04:55:08;;;;;;;19.20;8.30;;;;;;;5.49;90.79;97671.81;78155;1303;3025434;-69
2024/01/04 04:57:35;;;;;;;21.00;9.70;;;;;;;5.51;90.18;97679.83;79471;1304;3018508;-69
2024/01/04 05:00:02;;;;;;;32.10;12.40;;;;;;;5.23;90.61;97687.30;79323;1304;3011922;-65
2024/01/04 05:02:30;;;;;;;33.30;12.80;;;;;;;5.18;91.86;97684.86;78160;1302;3027481;-71
2024/01/04 05:04:57;;;;;;;51.70;15.70;;;;;;;5.84;90.14;97688.20;79393;1301;3013506;-66
2024/01/04 05:07:23;;;;;;;47.40;15.30;;;;;;;5.70;89.22;97691.05;79331;1302;3011327;-72
2024/01/04 05:09:51;;;;;;;42.20;15.40;;;;;;;5.75;89.24;97684.79;78115;1297;3026252;-73
2024/01/04 05:12:18;;;;;;;36.50;14.70;;;;;;;5.42;89.58;97686.36;79379;1303;3012907;-70
2024/01/04 05:14:44;;;;;;;34.90;14.80;;;;;;;5.08;91.52;97704.05;79461;1298;3013634;-69
2024/01/04 05:17:12;;;;;;;26.00;11.70;;;;;;;4.89;92.65;97708.27;78315;1302;3026404;-74
2024/01/04 05:19:39;;;;;;;14.30;8.10;;;;;;;5.11;91.82;97715.70;79417;1300;3013500;-71
2024/01/04 05:22:06;;;;;;;21.20;8.90;;;;;;;5.19;92.43;97715.86;79247;1304;3012810;-68
2024/01/04 05:24:36;;;;;;;14.80;8.10;;;;;;;5.37;91.46;97708.39;78201;1301;3026483;-71
2024/01/04 05:27:03;;;;;;;25.30;8.90;;;;;;;5.58;90.34;97708.59;79405;1304;3011653;-68
2024/01/04 05:29:30;;;;;;;20.30;8.60;;;;;;;5.25;90.66;97715.84;79439;1297;3012207;-75
2024/01/04 05:31:57;;;;;;;15.50;8.40;;;;;;;5.17;91.16;97710.48;78316;1302;3050706;-71
2024/01/04 05:34:25;;;;;;;17.90;8.10;;;;;;;4.87;91.82;97720.91;79507;1300;3018923;-71
2024/01/04 05:36:52;;;;;;;17.30;7.10;;;;;;;4.61;93.56;97729.31;79318;1304;3013318;-70
2024/01/04 05:39:20;;;;;;;12.80;6.90;;;;;;;5.51;92.01;97728.48;78153;1311;3050027;-68
2024/01/04 05:41:46;;;;;;;14.80;7.20;;;;;;;5.75;89.07;97721.64;79534;1303;3013056;-67
2024/01/04 05:44:13;;;;;;;18.20;7.70;;;;;;;5.47;88.98;97732.08;79495;1299;3011817;-68
2024/01/04 05:46:42;;;;;;;21.70;8.80;;;;;;;5.47;89.78;97727.03;78287;1301;3025477;-67
2024/01/04 05:49:09;;;;;;;24.10;9.70;;;;;;;5.23;89.87;97742.85;79493;1297;3014318;-67
2024/01/04 05:51:35;;;;;;;25.30;10.30;;;;;;;4.94;90.67;97735.88;79650;1297;3012320;-67
2024/01/04 05:54:03;;;;;;;18.90;8.00;;;;;;;4.75;92.23;97726.70;78375;1301;3049214;-70
2024/01/04 05:56:30;;;;;;;18.00;6.40;;;;;;;4.64;92.52;97718.75;81268;1297;3013332;-67
2024/01/04 05:58:57;;;;;;;14.60;8.10;;;;;;;5.03;92.61;97734.05;81417;1297;3011397;-68
2024/01/04 06:01:25;;;;;;;16.90;8.60;;;;;;;5.98;88.91;97744.58;80250;1301;3026633;-67
2024/01/04 06:03:51;;;;;;;12.80;6.70;;;;;;;5.93;86.85;97755.23;80703;1297;3012500;-69
2024/01/04 06:06:19;;;;;;;16.30;7.20;;;;;;;5.78;86.90;97760.70;81820;1297;3011305;-66
2024/01/04 06:08:47;;;;;;;17.50;8.10;;;;;;;5.31;88.67;97766.64;80533;1300;3049162;-67
2024/01/04 06:11:14;;;;;;;14.80;8.00;;;;;;;5.13;89.19;97757.91;79308;1301;3011543;-70
2024/01/04 06:13:40;;;;;;;13.60;7.40;;;;;;;5.06;89.87;97764.09;79382;1302;3011603;-70
2024/01/04 06:16:08;;;;;;;13.20;5.90;;;;;;;5.03;89.55;97762.18;78264;1301;3025671;-71
2024/01/04 06:18:35;;;;;;;16.50;7.00;;;;;;;5.40;88.95;97757.66;79441;1300;3013189;-66
2024/01/04 06:21:02;;;;;;;16.40;7.90;;;;;;;5.67;88.09;97756.61;79414;1301;3011808;-69
2024/01/04 06:23:31;;;;;;;15.50;6.40;;;;;;;5.62;87.20;97752.79;78214;1297;3028493;-68
2024/01/04 06:25:57;;;;;;;17.00;8.10;;;;;;;5.50;87.22;97753.57;79367;1298;3014548;-69
2024/01/04 06:28:24;;;;;;;17.50;8.10;;;;;;;5.16;88.51;97750.27;79419;1302;3011374;-72
2024/01/04 06:30:52;;;;;;;15.90;8.10;;;;;;;5.18;88.58;97752.06;78163;1300;3025922;-65
2024/01/04 06:33:18;;;;;;;14.70;7.20;;;;;;;5.08;88.89;97746.98;79494;1300;3013034;-68
2024/01/04 06:35:45;;;;;;;16.20;7.50;;;;;;;5.03;89.24;97747.62;79439;1301;3011527;-69
2024/01/04 06:38:13;;;;;;;15.90;7.70;;;;;;;5.70;88.45;97743.86;78436;1299;3025588;-72
2024/01/04 06:40:40;;;;;;;14.20;8.30;;;;;;;5.96;85.92;97743.85;79742;1300;3012718;-72
2024/01/04 06:43:10;;;;;;;15.50;7.10;;;;;;;5.96;85.79;97755.34;79530;1300;3011561;-68
2024/01/04 06:45:38;;;;;;;16.70;8.50;;;;;;;5.87;85.38;97754.89;78422;1300;3054019;-67
2024/01/04 06:48:07;;;;;;;16.30;8.00;;;;;;;5.64;86.14;97760.30;79564;1300;3013295;-66
2024/01/04 06:50:36;;;;;;;18.40;8.20;;;;;;;5.34;87.17;97761.20;79015;1298;3011648;-69
2024/01/04 06:53:03;;;;;;;18.30;9.50;;;;;;;5.03;88.83;97769.87;79563;1300;3012686;-70
2024/01/04 06:55:30;;;;;;;16.10;7.90;;;;;;;5.09;88.53;97771.88;79600;1300;3011763;-66
2024/01/04 06:57:58;;;;;;;11.10;6.40;;;;;;;5.09;88.70;97780.71;78368;1301;3024626;-70
2024/01/04 07:00:25;;;;;;;18.50;8.00;;;;;;;5.64;87.72;97781.60;79437;1298;3013671;-65
2024/01/04 07:02:52;;;;;;;18.00;8.70;;;;;;;5.97;85.56;97776.61;79568;1298;3011183;-67
2024/01/04 07:05:19;;;;;;;17.70;8.80;;;;;;;6.08;84.45;97773.80;78264;1297;3025856;-70
2024/01/04 07:07:46;;;;;;;17.60;9.70;;;;;;;5.66;85.34;97772.66;79364;1297;3013303;-67
2024/01/04 07:10:13;;;;;;;18.00;9.40;;;;;;;5.65;85.75;97771.29;79473;1297;3011751;-67
2024/01/04 07:12:42;;;;;;;17.40;9.00;;;;;;;5.28;86.74;97780.19;78301;1301;3026740;-67
2024/01/04 07:15:10;;;;;;;16.40;8.40;;;;;;;5.28;86.94;97780.92;79468;1300;3012646;-67
2024/01/04 07:17:39;;;;;;;14.70;6.90;;;;;;;5.01;88.78;97782.29;78984;1300;3011602;-69
2024/01/04 07:20:06;;;;;;;18.80;8.90;;;;;;;5.49;87.99;97775.85;79516;1297;3018896;-68
2024/01/04 07:22:34;;;;;;;17.00;8.00;;;;;;;5.94;85.93;97774.90;79578;1294;3011832;-67
2024/01/04 07:25:02;;;;;;;15.00;7.70;;;;;;;6.18;84.72;97784.62;78305;1295;3048023;-65
2024/01/04 07:27:29;;;;;;;19.40;6.70;;;;;;;6.06;83.70;97789.44;79441;1294;3013734;-67
2024/01/04 07:29:57;;;;;;;18.30;7.50;;;;;;;5.76;84.42;97797.65;79538;1296;3011553;-71
2024/01/04 07:32:25;;;;;;;16.20;9.30;;;;;;;5.63;85.36;97804.08;78322;1295;3051648;-68
2024/01/04 07:34:52;;;;;;;11.10;6.20;;;;;;;5.38;86.38;97806.08;79629;1300;3013896;-70
2024/01/04 07:37:18;;;;;;;18.80;8.50;;;;;;;5.38;86.98;97799.67;79516;1300;3011585;-67
2024/01/04 07:39:46;;;;;;;19.10;8.00;;;;;;;5.77;86.35;97805.23;78390;1294;3025624;-64
2024/01/04 07:42:13;;;;;;;20.10;8.30;;;;;;;5.92;84.94;97792.81;79403;1294;3020875;-71
2024/01/04 07:44:39;;;;;;;15.30;6.90;;;;;;;5.95;84.68;97790.67;79608;1297;3012224;-70
2024/01/04 07:47:08;;;;;;;20.80;8.60;;;;;;;6.01;84.62;97803.16;78333;1298;3027026;-68
2024/01/04 07:49:35;;;;;;;17.40;9.00;;;;;;;6.11;83.93;97795.48;79561;1295;3013712;-69
2024/01/04 07:52:02;;;;;;;21.90;10.20;;;;;;;5.86;85.69;97787.98;79389;1298;3011719;-67
2024/01/04 07:54:30;;;;;;;22.20;9.40;;;;;;;5.89;85.96;97783.09;78157;1297;3049263;-72
2024/01/04 07:56:57;;;;;;;13.70;7.70;;;;;;;5.89;86.69;97788.64;79438;1297;3015039;-71
2024/01/04 07:59:23;;;;;;;16.70;7.40;;;;;;;6.59;84.66;97788.36;79421;1298;3012077;-69
2024/01/04 08:01:51;;;;;;;15.30;8.20;;;;;;;6.79;82.85;97796.34;78381;1299;3026319;-66
2024/01/04 08:04:18;;;;;;;18.10;9.20;;;;;;;6.68;83.15;97805.95;79831;1295;3012893;-68
2024/01/04 08:06:45;;;;;;;16.00;7.20;;;;;;;6.55;83.97;97805.70;79655;1294;3011669;-72
2024/01/04 08:09:13;;;;;;;20.30;10.40;;;;;;;6.25;85.03;97811.56;78347;1296;3049764;-71
2024/01/04 08:11:41;;;;;;;18.00;10.10;;;;;;;6.23;85.38;97811.75;79854;1297;3013019;-74
2024/01/04 08:14:07;;;;;;;17.00;8.00;;;;;;;6.11;86.13;97810.66;79866;1295;3011566;-69
2024/01/04 08:16:36;;;;;;;15.20;8.50;;;;;;;5.99;86.04;97819.58;78641;1298;3051645;-67
2024/01/04 08:19:02;;;;;;;12.90;6.10;;;;;;;5.91;87.40;97827.24;79990;1298;3011665;-68
2024/01/04 08:21:30;;;;;;;16.80;6.80;;;;;;;6.56;85.60;97823.56;79417;1300;3011532;-66
2024/01/04 08:23:58;;;;;;;14.40;7.30;;;;;;;6.59;85.18;97819.48;78646;1299;3048061;-69
2024/01/04 08:26:25;;;;;;;15.70;7.80;;;;;;;6.37;84.99;97819.29;79796;1294;3013732;-69
2024/01/04 08:28:52;;;;;;;12.10;6.70;;;;;;;6.38;85.77;97817.80;79688;1298;3011435;-71
2024/01/04 08:31:20;;;;;;;19.30;8.70;;;;;;;6.33;85.58;97818.69;78808;1297;3026746;-70
2024/01/04 08:33:46;;;;;;;13.00;7.70;;;;;;;6.28;86.34;97815.59;79479;1298;3013205;-67
2024/01/04 08:36:13;;;;;;;18.40;9.30;;;;;;;6.15;87.32;97819.96;79635;1298;3011600;-73
2024/01/04 08:38:41;;;;;;;13.60;7.80;;;;;;;6.18;87.85;97829.10;78713;1296;3025929;-65
2024/01/04 08:41:08;;;;;;;12.80;6.60;;;;;;;6.55;87.13;97824.98;79846;1294;3014089;-69
2024/01/04 08:43:34;;;;;;;15.10;6.80;;;;;;;7.18;84.62;97827.50;79741;1296;3013416;-70
2024/01/04 08:46:02;;;;;;;12.10;6.20;;;;;;;7.11;83.52;97824.20;78518;1298;3026468;-61
2024/01/04 08:48:29;;;;;;;11.90;6.30;;;;;;;6.89;83.76;97821.38;79798;1298;3013147;-71
2024/01/04 08:50:56;;;;;;;14.10;6.80;;;;;;;6.81;84.17;97816.90;79577;1297;3011617;-69
2024/01/04 08:53:24;;;;;;;20.90;7.00;;;;;;;6.67;85.06;97812.89;78760;1295;3028163;-73
2024/01/04 08:55:50;;;;;;;15.20;7.90;;;;;;;6.62;85.57;97812.99;80060;1294;3012596;-69
2024/01/04 08:58:17;;;;;;;15.30;8.20;;;;;;;6.66;85.19;97815.71;79820;1295;3012821;-69
2024/01/04 09:00:45;;;;;;;11.90;7.70;;;;;;;6.49;86.25;97818.45;78402;1298;3026496;-78
2024/01/04 09:03:12;;;;;;;13.20;6.60;;;;;;;7.11;84.43;97816.64;79754;1295;3013798;-69
2024/01/04 09:05:39;;;;;;;21.70;9.90;;;;;;;7.29;83.29;97833.42;79664;1295;3011804;-68
2024/01/04 09:08:09;;;;;;;40.50;13.80;;;;;;;7.36;82.86;97831.08;78509;1295;3026357;-72
2024/01/04 09:10:36;;;;;;;36.00;13.90;;;;;;;7.24;82.95;97832.77;79885;1295;3013136;-71
2024/01/04 09:13:02;;;;;;;18.00;9.30;;;;;;;6.87;84.41;97846.74;79718;1298;3011767;-66
2024/01/04 09:15:31;;;;;;;15.90;7.00;;;;;;;6.61;85.64;97847.22;78479;1298;3052776;-75
2024/01/04 09:17:57;;;;;;;15.10;8.30;;;;;;;6.66;85.47;97842.00;79741;1298;3013327;-70
2024/01/04 09:20:24;;;;;;;11.70;6.90;;;;;;;6.57;86.79;97847.62;79817;1299;3013717;-66
2024/01/04 09:22:52;;;;;;;10.20;6.10;;;;;;;7.28;85.38;97850.45;78679;1298;3027890;-72
2024/01/04 09:25:19;;;;;;;8.90;4.60;;;;;;;7.41;82.38;97837.34;79673;1294;3012867;-71
2024/01/04 09:27:46;;;;;;;11.00;6.10;;;;;;;7.80;80.92;97842.60;79781;1295;3013136;-72
2024/01/04 09:30:14;;;;;;;11.20;5.60;;;;;;;7.50;80.73;97838.23;78533;1298;3051534;-75
2024/01/04 09:32:42;;;;;;;10.20;5.70;;;;;;;7.49;80.82;97838.14;79910;1295;3013980;-70
2024/01/04 09:35:09;;;;;;;10.10;6.30;;;;;;;7.22;81.30;97833.48;79685;1295;3011915;-67
2024/01/04 09:37:37;;;;;;;12.00;6.20;;;;;;;7.09;82.38;97830.04;78313;1298;3049518;-73
2024/01/04 09:40:04;;;;;;;14.50;7.70;;;;;;;7.04;83.16;97829.68;79667;1295;3012963;-68
2024/01/04 09:42:31;;;;;;;14.50;7.60;;;;;;;7.09;83.26;97834.73;79604;1295;3011637;-75
2024/01/04 09:44:59;;;;;;;10.10;5.70;;;;;;;7.23;82.45;97833.55;78383;1300;3026233;-69
2024/01/04 09:47:26;;;;;;;13.10;6.90;;;;;;;7.66;80.98;97823.42;79626;1298;3013432;-73
2024/01/04 09:49:53;;;;;;;11.40;7.00;;;;;;;7.57;81.21;97812.41;79650;1295;3013069;-70
2024/01/04 09:52:22;;;;;;;13.50;7.20;;;;;;;7.60;81.54;97817.46;78523;1296;3027591;-76
2024/01/04 09:54:48;;;;;;;14.50;6.70;;;;;;;7.66;81.48;97815.27;79575;1296;3012667;-66
2024/01/04 09:57:15;;;;;;;14.50;7.20;;;;;;;7.51;82.30;97825.98;79552;1294;3011566;-67
2024/01/04 09:59:43;;;;;;;13.60;6.60;;;;;;;7.19;84.11;97829.15;78394;1298;3052798;-74
2024/01/04 10:02:11;;;;;;;12.80;6.20;;;;;;;6.89;85.95;97832.71;79689;1294;3019187;-67
2024/01/04 10:04:40;;;;;;;9.80;4.80;;;;;;;6.96;86.69;97839.84;79638;1294;3012151;-68
2024/01/04 10:07:08;;;;;;;11.50;5.90;;;;;;;7.41;85.38;97835.90;78512;1300;3049368;-72
2024/01/04 10:09:38;;;;;;;25.30;7.30;;;;;;;7.75;83.93;97832.86;79640;1297;3015653;-72
2024/01/04 10:12:08;;;;;;;28.50;9.60;;;;;;;7.48;84.15;97831.00;78371;1298;3053398;-73
2024/01/04 10:14:35;;;;;;;14.60;6.40;;;;;;;7.38;85.11;97831.23;79723;1298;3013583;-72
2024/01/04 10:17:04;;;;;;;11.30;6.50;;;;;;;7.14;85.58;97831.41;79106;1294;3011923;-68
2024/01/04 10:19:32;;;;;;;15.30;7.80;;;;;;;7.14;85.75;97816.48;79701;1294;3013567;-69
2024/01/04 10:22:01;;;;;;;11.60;5.80;;;;;;;7.08;85.93;97819.67;79664;1294;3011702;-68
2024/01/04 10:24:31;;;;;;;12.30;5.60;;;;;;;7.07;85.90;97811.38;78375;1297;3054189;-71
2024/01/04 10:26:58;;;;;;;9.80;4.40;;;;;;;7.07;85.90;97806.52;79681;1295;3011583;-67
2024/01/04 10:29:28;;;;;;;13.70;5.70;;;;;;;7.57;85.47;97800.41;79226;1297;3011872;-70
2024/01/04 10:32:05;;;;;;;9.90;5.20;;;;;;;7.97;83.93;97800.70;79667;1295;3012928;-74
2024/01/04 10:34:34;;;;;;;16.20;6.60;;;;;;;8.04;82.98;97796.67;78478;1294;3049683;-73
2024/01/04 10:37:11;;;;;;;13.10;6.30;;;;;;;8.30;82.11;97792.30;79562;1295;3013473;-69
2024/01/04 10:39:46;;;;;;;10.10;5.30;;;;;;;8.09;82.15;97793.66;78484;1295;3052495;-70
2024/01/04 10:42:16;;;;;;;8.50;4.90;;;;;;;7.91;82.47;97799.80;79114;1297;3011905;-73
2024/01/04 10:44:46;;;;;;;10.40;5.40;;;;;;;7.49;84.35;97805.20;79725;1298;3013127;-74
2024/01/04 10:47:14;;;;;;;15.50;7.10;;;;;;;7.47;84.15;97822.55;78532;1298;3052966;-72
2024/01/04 10:49:41;;;;;;;12.40;5.70;;;;;;;7.46;85.13;97832.59;79785;1294;3019405;-70
2024/01/04 10:52:11;;;;;;;10.40;5.00;;;;;;;7.72;84.47;97835.16;79782;1294;3011550;-69
2024/01/04 10:54:39;;;;;;;24.40;6.60;;;;;;;8.16;82.50;97815.11;78321;1294;3055253;-73
2024/01/04 10:57:06;;;;;;;13.30;6.50;;;;;;;7.81;83.52;97814.98;79463;1296;3013534;-67
2024/01/04 10:59:32;;;;;;;12.80;6.40;;;;;;;7.67;84.28;97806.46;79608;1295;3011701;-71
2024/01/04 11:02:00;;;;;;;11.40;6.70;;;;;;;7.66;83.54;97793.31;78518;1298;3052161;-72
2024/01/04 11:04:28;;;;;;;16.40;7.20;;;;;;;7.12;85.51;97793.60;79792;1294;3012867;-73
2024/01/04 11:06:56;;;;;;;13.90;6.50;;;;;;;7.08;86.25;97783.28;79714;1298;3011773;-70
2024/01/04 11:09:25;;;;;;;8.30;4.90;;;;;;;7.02;86.73;97784.09;78445;1297;3056557;-72
2024/01/04 11:11:52;;;;;;;8.80;4.80;;;;;;;7.21;86.54;97777.25;79785;1295;3013470;-78
2024/01/04 11:14:24;;;;;;;6.90;4.10;;;;;;;7.58;85.08;97770.17;79616;1295;3011742;-73
2024/01/04 11:17:11;;;;;;;7.60;4.30;;;;;;;7.68;84.15;97765.25;78557;1298;3053104;-72
2024/01/04 11:20:05;;;;;;;10.60;5.50;;;;;;;7.62;84.09;97760.83;78405;1297;3051433;-67
2024/01/04 11:22:39;;;;;;;34.60;11.60;;;;;;;7.64;84.24;97766.40;78438;1298;3069253;-77